createdAt,value
2023-05-10T00:01:11.520Z,25.50
2023-05-10T00:03:59.317Z,27.52
2023-05-10T00:06:48.943Z,24.08
2023-05-10T00:09:36.361Z,25.90
2023-05-10T00:12:23.579Z,25.60
2023-05-10T00:15:13.236Z,27.00
2023-05-10T00:18:00.761Z,27.77
2023-05-10T00:20:51.794Z,24.92
2023-05-10T00:23:40.019Z,24.45
2023-05-10T00:26:28.240Z,26.30
2023-05-10T00:29:15.629Z,25.08
2023-05-10T00:32:05.705Z,25.50
2023-05-10T00:34:53.058Z,24.38
2023-05-10T00:37:40.609Z,24.92
2023-05-10T00:40:27.971Z,23.73
2023-05-10T00:43:18.446Z,26.90
2023-05-10T00:46:06.889Z,26.02
2023-05-10T00:48:55.737Z,26.13
2023-05-10T00:51:44.132Z,25.88
2023-05-10T00:54:31.883Z,27.70
2023-05-10T00:57:19.847Z,25.88
2023-05-10T01:00:19.097Z,27.58
2023-05-10T01:03:07.381Z,28.52
2023-05-10T01:05:56.779Z,27.80
2023-05-10T01:08:44.272Z,27.42
2023-05-10T01:11:38.076Z,27.33
2023-05-10T01:14:33.414Z,29.17
2023-05-10T01:17:24.975Z,26.88
2023-05-10T01:20:17.087Z,25.42
2023-05-10T01:23:32.705Z,25.17
2023-05-10T01:26:47.995Z,25.15
2023-05-10T01:30:22.176Z,24.50
2023-05-10T01:33:23.901Z,24.95
2023-05-10T01:36:20.449Z,25.73
2023-05-10T01:39:19.327Z,22.73
2023-05-10T01:42:11.435Z,23.25
2023-05-10T01:45:14.104Z,21.45
2023-05-10T01:48:08.242Z,24.90
2023-05-10T01:50:59.244Z,24.10
2023-05-10T01:53:48.991Z,25.63
2023-05-10T01:56:43.390Z,26.83
2023-05-10T01:59:38.185Z,22.80
2023-05-10T02:02:28.694Z,22.25
2023-05-10T02:05:21.268Z,22.65
2023-05-10T02:08:20.463Z,23.70
2023-05-10T02:11:23.113Z,24.98
2023-05-10T02:14:22.765Z,24.08
2023-05-10T02:17:11.228Z,23.85
2023-05-10T02:20:06.092Z,24.67
2023-05-10T02:22:56.344Z,24.88
2023-05-10T02:25:53.184Z,27.58
2023-05-10T02:28:43.696Z,26.33
2023-05-10T02:31:33.443Z,26.73
2023-05-10T02:34:26.739Z,25.23
2023-05-10T02:37:15.872Z,23.80
2023-05-10T02:40:08.937Z,22.02
2023-05-10T02:43:03.525Z,21.13
2023-05-10T02:45:51.007Z,22.90
2023-05-10T02:48:39.382Z,21.83
2023-05-10T02:51:35.981Z,23.90
2023-05-10T02:54:28.948Z,22.33
2023-05-10T02:57:19.605Z,22.50
2023-05-10T03:00:12.745Z,23.58
2023-05-10T03:03:01.098Z,24.02
2023-05-10T03:05:52.418Z,24.23
2023-05-10T03:08:40.908Z,23.02
2023-05-10T03:11:40.839Z,25.13
2023-05-10T03:14:45.351Z,24.02
2023-05-10T03:17:48.500Z,24.67
2023-05-10T03:20:39.776Z,24.55
2023-05-10T03:23:31.403Z,17.88
2023-05-10T03:26:21.910Z,20.13
2023-05-10T03:29:10.049Z,10.93
2023-05-10T03:31:59.216Z,13.80
2023-05-10T03:34:49.114Z,14.35
2023-05-10T03:37:36.821Z,16.77
2023-05-10T03:40:25.054Z,16.77
2023-05-10T03:43:12.469Z,15.77
2023-05-10T03:45:59.920Z,17.23
2023-05-10T03:48:47.377Z,17.05
2023-05-10T03:51:37.854Z,17.08
2023-05-10T03:54:25.585Z,17.77
2023-05-10T03:57:13.014Z,18.55
2023-05-10T04:00:01.947Z,17.92
2023-05-10T04:02:49.724Z,16.83
2023-05-10T04:05:38.214Z,15.60
2023-05-10T04:08:27.338Z,16.05
2023-05-10T04:11:17.243Z,17.67
2023-05-10T04:14:19.016Z,16.80
2023-05-10T04:17:06.810Z,16.40
2023-05-10T04:20:00.677Z,17.02
2023-05-10T04:22:48.319Z,17.45
2023-05-10T04:25:37.479Z,18.10
2023-05-10T04:28:28.852Z,19.95
2023-05-10T04:31:16.475Z,17.77
2023-05-10T04:34:16.311Z,14.98
2023-05-10T04:37:33.164Z,15.75
2023-05-10T04:43:26.127Z,12.70
2023-05-10T04:52:35.436Z,13.88
2023-05-10T04:55:40.754Z,12.10
2023-05-10T04:58:40.624Z,12.70
2023-05-10T05:04:51.181Z,12.45
2023-05-10T05:07:39.364Z,10.23
2023-05-10T05:10:26.975Z,11.45
2023-05-10T05:13:14.276Z,9.85
2023-05-10T05:19:46.903Z,10.32
2023-05-10T05:22:46.037Z,11.40
2023-05-10T05:25:43.160Z,10.60
2023-05-10T05:28:38.641Z,12.07
2023-05-10T05:31:26.921Z,11.32
2023-05-10T05:34:19.414Z,11.20
2023-05-10T05:40:34.963Z,11.18
2023-05-10T05:43:22.464Z,11.40
2023-05-10T05:46:09.699Z,9.80
2023-05-10T05:49:00.303Z,8.95
2023-05-10T05:51:51.937Z,10.07
2023-05-10T05:54:39.795Z,10.60
2023-05-10T05:57:37.922Z,9.80
2023-05-10T06:00:31.640Z,8.15
2023-05-10T06:03:19.365Z,9.77
2023-05-10T06:06:13.803Z,8.63
2023-05-10T06:09:02.658Z,8.60
2023-05-10T06:11:50.038Z,8.48
2023-05-10T06:14:37.585Z,9.65
2023-05-10T06:17:25.185Z,10.73
2023-05-10T06:20:13.954Z,10.00
2023-05-10T06:23:01.362Z,10.30
2023-05-10T06:25:52.631Z,9.73
2023-05-10T06:28:40.133Z,8.88
2023-05-10T06:31:27.631Z,10.15
2023-05-10T06:34:15.143Z,9.60
2023-05-10T06:37:04.549Z,8.98
2023-05-10T06:39:51.989Z,10.10
2023-05-10T06:42:40.750Z,9.15
2023-05-10T06:45:27.915Z,7.90
2023-05-10T06:48:15.258Z,10.77
2023-05-10T06:51:05.032Z,9.57
2023-05-10T06:53:52.427Z,10.00
2023-05-10T06:56:43.098Z,8.02
2023-05-10T06:59:52.969Z,8.55
2023-05-10T07:02:40.321Z,8.68
2023-05-10T07:05:34.334Z,8.55
2023-05-10T07:08:31.544Z,9.20
2023-05-10T07:12:04.622Z,9.70
2023-05-10T07:14:53.958Z,9.32
2023-05-10T07:17:43.211Z,9.32
2023-05-10T07:20:31.997Z,9.95
2023-05-10T07:23:19.647Z,8.15
2023-05-10T07:26:06.920Z,8.60
2023-05-10T07:28:54.206Z,8.25
2023-05-10T07:31:45.377Z,8.70
2023-05-10T07:34:33.042Z,9.70
2023-05-10T07:37:20.281Z,8.98
2023-05-10T07:43:18.056Z,9.23
2023-05-10T07:46:06.453Z,8.57
2023-05-10T07:48:55.311Z,7.95
2023-05-10T07:51:43.745Z,6.32
2023-05-10T07:54:31.277Z,7.43
2023-05-10T07:57:19.080Z,6.20
2023-05-10T08:03:44.070Z,5.95
2023-05-10T08:06:32.776Z,5.20
2023-05-10T08:09:25.013Z,4.55
2023-05-10T08:12:12.644Z,6.00
2023-05-10T08:14:59.742Z,4.82
2023-05-10T08:17:46.949Z,4.68
2023-05-10T08:20:34.396Z,4.68
2023-05-10T08:23:24.450Z,4.63
2023-05-10T08:26:12.690Z,4.90
2023-05-10T08:29:01.608Z,4.80
2023-05-10T08:31:53.159Z,4.60
2023-05-10T08:34:58.293Z,5.38
2023-05-10T08:37:46.984Z,4.85
2023-05-10T08:40:41.372Z,4.25
2023-05-10T08:43:51.895Z,4.38
2023-05-10T08:46:45.843Z,4.45
2023-05-10T08:49:34.664Z,4.38
2023-05-10T08:52:24.515Z,5.80
2023-05-10T08:55:20.167Z,4.20
2023-05-10T08:58:19.313Z,4.25
2023-05-10T09:01:07.544Z,4.25
2023-05-10T09:03:55.125Z,3.40
2023-05-10T09:06:42.758Z,4.32
2023-05-10T09:09:30.375Z,4.43
2023-05-10T09:12:17.857Z,4.35
2023-05-10T09:15:10.833Z,4.00
2023-05-10T09:18:00.496Z,3.58
2023-05-10T09:20:48.232Z,3.65
2023-05-10T09:23:35.529Z,3.10
2023-05-10T09:26:25.920Z,4.20
2023-05-10T09:29:17.540Z,3.47
2023-05-10T09:35:07.509Z,3.22
2023-05-10T09:37:58.667Z,3.53
2023-05-10T09:41:05.642Z,3.85
2023-05-10T09:43:58.166Z,3.63
2023-05-10T09:46:52.068Z,3.35
2023-05-10T09:49:56.297Z,4.22
2023-05-10T09:52:55.756Z,4.03
2023-05-10T09:56:10.583Z,3.63
2023-05-10T09:59:13.650Z,3.55
2023-05-10T10:02:10.504Z,3.50
2023-05-10T10:05:01.932Z,2.88
2023-05-10T10:07:58.254Z,2.83
2023-05-10T10:10:47.324Z,2.40
2023-05-10T10:13:50.095Z,2.25
2023-05-10T10:16:45.977Z,3.20
2023-05-10T10:22:57.474Z,2.78
2023-05-10T10:25:53.921Z,2.90
2023-05-10T10:28:50.887Z,2.63
2023-05-10T10:32:11.323Z,2.72
2023-05-10T10:34:59.931Z,3.20
2023-05-10T10:38:00.772Z,3.22
2023-05-10T10:41:28.195Z,3.05
2023-05-10T10:47:44.768Z,3.03
2023-05-10T10:50:52.695Z,2.67
2023-05-10T10:53:44.264Z,2.63
2023-05-10T10:56:32.155Z,3.38
2023-05-10T10:59:42.580Z,3.50
2023-05-10T11:02:46.928Z,3.38
2023-05-10T11:08:58.002Z,3.50
2023-05-10T11:11:59.333Z,3.90
2023-05-10T11:14:51.571Z,4.18
2023-05-10T11:17:51.321Z,3.95
2023-05-10T11:20:40.909Z,4.03
2023-05-10T11:23:33.002Z,3.78
2023-05-10T11:29:52.983Z,3.50
2023-05-10T11:32:44.921Z,5.50
2023-05-10T11:35:40.406Z,6.10
2023-05-10T11:38:29.789Z,5.07
2023-05-10T11:41:19.722Z,6.38
2023-05-10T11:44:10.602Z,5.45
2023-05-10T11:46:59.945Z,5.38
2023-05-10T11:49:47.882Z,5.50
2023-05-10T11:52:38.310Z,5.15
2023-05-10T11:55:26.086Z,5.15
2023-05-10T11:58:13.533Z,3.78
2023-05-10T12:01:02.771Z,4.05
2023-05-10T12:03:54.160Z,3.50
2023-05-10T12:06:45.249Z,4.65
2023-05-10T12:09:43.177Z,4.72
2023-05-10T12:12:37.910Z,3.85
2023-05-10T12:15:25.956Z,4.40
2023-05-10T12:18:18.798Z,3.60
2023-05-10T12:21:26.921Z,3.70
2023-05-10T12:24:15.513Z,4.80
2023-05-10T12:27:45.022Z,4.30
2023-05-10T12:30:33.847Z,4.72
2023-05-10T12:33:22.589Z,5.53
2023-05-10T12:36:12.954Z,4.45
2023-05-10T12:39:03.965Z,4.97
2023-05-10T12:41:51.774Z,4.70
2023-05-10T12:44:39.537Z,4.55
2023-05-10T12:47:26.774Z,3.50
2023-05-10T12:50:57.460Z,3.75
2023-05-10T12:54:17.675Z,4.07
2023-05-10T12:57:05.309Z,3.45
2023-05-10T12:59:52.833Z,3.92
2023-05-10T13:02:40.133Z,3.65
2023-05-10T13:05:27.489Z,3.42
2023-05-10T13:08:16.233Z,3.40
2023-05-10T13:11:04.218Z,4.00
2023-05-10T13:13:51.289Z,3.45
2023-05-10T13:16:41.462Z,2.90
2023-05-10T13:19:28.537Z,4.03
2023-05-10T13:22:18.734Z,3.75
2023-05-10T13:25:11.971Z,3.72
2023-05-10T13:27:59.291Z,3.90
2023-05-10T13:30:46.629Z,3.55
2023-05-10T13:33:33.693Z,3.65
2023-05-10T13:36:20.924Z,3.67
2023-05-10T13:39:08.378Z,4.30
2023-05-10T13:41:57.405Z,3.92
2023-05-10T13:44:44.606Z,4.28
2023-05-10T13:47:31.995Z,3.88
2023-05-10T13:50:28.549Z,3.90
2023-05-10T13:53:18.272Z,4.00
2023-05-10T13:56:05.809Z,4.22
2023-05-10T13:58:54.926Z,4.35
2023-05-10T14:01:44.696Z,4.07
2023-05-10T14:04:32.741Z,4.15
2023-05-10T14:07:20.404Z,4.70
2023-05-10T14:10:08.583Z,4.93
2023-05-10T14:12:58.424Z,4.03
2023-05-10T14:15:47.101Z,4.60
2023-05-10T14:18:34.380Z,4.60
2023-05-10T14:21:22.682Z,4.20
2023-05-10T14:24:11.322Z,3.90
2023-05-10T14:27:04.364Z,4.20
2023-05-10T14:29:54.517Z,4.15
2023-05-10T14:32:43.396Z,4.25
2023-05-10T14:35:32.323Z,3.15
2023-05-10T14:38:20.182Z,3.42
2023-05-10T14:41:08.680Z,3.17
2023-05-10T14:43:57.758Z,3.10
2023-05-10T14:46:45.009Z,3.35
2023-05-10T14:49:33.564Z,2.92
2023-05-10T14:52:20.815Z,3.80
2023-05-10T14:55:09.335Z,4.05
2023-05-10T14:57:57.286Z,3.78
2023-05-10T15:00:47.080Z,3.88
2023-05-10T15:03:35.104Z,4.70
2023-05-10T15:06:32.142Z,3.33
2023-05-10T15:09:20.157Z,4.10
2023-05-10T15:12:10.307Z,4.75
2023-05-10T15:14:57.420Z,4.72
2023-05-10T15:17:57.532Z,4.55
2023-05-10T15:20:45.927Z,5.00
2023-05-10T15:23:40.140Z,5.95
2023-05-10T15:26:28.682Z,5.30
2023-05-10T15:29:20.678Z,3.92
2023-05-10T15:32:08.263Z,4.20
2023-05-10T15:34:58.298Z,4.00
2023-05-10T15:38:17.138Z,3.03
2023-05-10T15:41:06.908Z,3.67
2023-05-10T15:47:15.017Z,2.42
2023-05-10T15:50:07.483Z,2.22
2023-05-10T15:52:57.105Z,2.47
2023-05-10T15:55:57.493Z,2.33
2023-05-10T15:58:58.440Z,2.03
2023-05-10T16:01:45.834Z,2.22
2023-05-10T16:04:33.346Z,2.88
2023-05-10T16:07:23.233Z,2.67
2023-05-10T16:10:12.545Z,2.33
2023-05-10T16:13:05.202Z,3.28
2023-05-10T16:16:04.625Z,2.60
2023-05-10T16:18:52.837Z,2.83
2023-05-10T16:21:40.553Z,2.47
2023-05-10T16:24:43.936Z,3.08
2023-05-10T16:27:33.670Z,3.33
2023-05-10T16:30:27.714Z,3.17
2023-05-10T16:33:16.918Z,3.17
2023-05-10T16:36:16.108Z,3.70
2023-05-10T16:39:04.328Z,3.13
2023-05-10T16:41:53.270Z,3.50
2023-05-10T16:44:40.591Z,4.43
2023-05-10T16:47:34.945Z,3.70
2023-05-10T16:50:24.835Z,2.97
2023-05-10T16:53:13.384Z,3.70
2023-05-10T16:56:01.336Z,4.70
2023-05-10T16:59:06.372Z,3.97
2023-05-10T17:01:55.876Z,4.22
2023-05-10T17:04:55.059Z,3.90
2023-05-10T17:07:50.009Z,4.70
2023-05-10T17:10:39.970Z,4.20
2023-05-10T17:13:27.917Z,3.58
2023-05-10T17:16:16.164Z,4.40
2023-05-10T17:19:05.891Z,5.35
2023-05-10T17:21:53.749Z,5.13
2023-05-10T17:24:53.806Z,4.38
2023-05-10T17:27:42.846Z,4.90
2023-05-10T17:30:34.877Z,6.30
2023-05-10T17:33:25.596Z,6.32
2023-05-10T17:36:13.835Z,5.57
2023-05-10T17:39:02.403Z,6.50
2023-05-10T17:41:51.262Z,5.07
2023-05-10T17:44:41.463Z,5.68
2023-05-10T17:47:37.065Z,6.70
2023-05-10T17:50:26.866Z,8.07
2023-05-10T17:53:14.253Z,5.95
2023-05-10T17:56:04.325Z,6.25
2023-05-10T17:58:53.638Z,6.25
2023-05-10T18:01:42.689Z,5.68
2023-05-10T18:04:30.925Z,6.00
2023-05-10T18:07:18.330Z,6.82
2023-05-10T18:10:07.456Z,6.18
2023-05-10T18:12:58.828Z,5.90
2023-05-10T18:15:48.774Z,5.70
2023-05-10T18:18:36.292Z,6.38
2023-05-10T18:21:24.090Z,6.07
2023-05-10T18:24:11.867Z,6.18
2023-05-10T18:27:02.092Z,6.78
2023-05-10T18:29:52.489Z,6.53
2023-05-10T18:32:42.438Z,6.70
2023-05-10T18:35:30.584Z,7.75
2023-05-10T18:38:18.489Z,6.97
2023-05-10T18:41:13.487Z,6.63
2023-05-10T18:47:11.980Z,6.60
2023-05-10T18:53:29.826Z,6.43
2023-05-10T18:56:18.091Z,7.47
2023-05-10T18:59:05.678Z,6.93
2023-05-10T19:02:03.047Z,7.25
2023-05-10T19:04:53.977Z,8.05
2023-05-10T19:07:44.098Z,9.23
2023-05-10T19:10:31.323Z,7.47
2023-05-10T19:13:21.380Z,7.25
2023-05-10T19:16:11.705Z,7.85
2023-05-10T19:19:15.358Z,7.72
2023-05-10T19:22:09.525Z,8.55
2023-05-10T19:24:59.134Z,8.48
2023-05-10T19:27:49.477Z,8.05
2023-05-10T19:30:37.025Z,8.68
2023-05-10T19:33:24.977Z,8.05
2023-05-10T19:36:38.506Z,8.35
2023-05-10T19:39:37.215Z,9.05
2023-05-10T19:42:53.454Z,8.15
2023-05-10T19:45:50.502Z,9.63
2023-05-10T19:48:39.346Z,9.95
2023-05-10T19:54:42.626Z,11.32
2023-05-10T19:57:32.608Z,11.63
2023-05-10T20:00:20.805Z,10.48
2023-05-10T20:03:11.847Z,11.40
2023-05-10T20:05:59.892Z,11.70
2023-05-10T20:08:48.247Z,10.75
2023-05-10T20:11:36.178Z,10.95
2023-05-10T20:14:25.199Z,10.18
2023-05-10T20:17:12.724Z,10.98
2023-05-10T20:20:00.352Z,11.07
2023-05-10T20:22:48.636Z,12.63
2023-05-10T20:25:36.288Z,13.00
2023-05-10T20:28:26.202Z,12.82
2023-05-10T20:31:14.834Z,13.07
2023-05-10T20:34:02.410Z,13.55
2023-05-10T20:36:49.972Z,13.90
2023-05-10T20:39:38.385Z,13.40
2023-05-10T20:42:25.758Z,18.90
2023-05-10T20:45:13.206Z,14.52
2023-05-10T20:48:04.854Z,14.65
2023-05-10T20:50:52.527Z,12.60
2023-05-10T20:53:42.375Z,13.98
2023-05-10T20:56:30.128Z,14.43
2023-05-10T20:59:17.994Z,13.77
2023-05-10T21:02:07.831Z,14.80
2023-05-10T21:04:57.994Z,14.48
2023-05-10T21:07:45.393Z,13.48
2023-05-10T21:10:32.886Z,13.43
2023-05-10T21:13:20.528Z,13.57
2023-05-10T21:16:09.160Z,13.15
2023-05-10T21:18:56.538Z,13.98
2023-05-10T21:21:45.229Z,13.20
2023-05-10T21:24:33.277Z,12.63
2023-05-10T21:27:20.730Z,13.85
2023-05-10T21:30:10.195Z,13.25
2023-05-10T21:32:59.784Z,12.80
2023-05-10T21:35:47.326Z,12.27
2023-05-10T21:38:40.369Z,12.90
2023-05-10T21:41:30.323Z,12.02
2023-05-10T21:44:17.692Z,12.98
2023-05-10T21:47:07.962Z,12.05
2023-05-10T21:49:55.164Z,13.48
2023-05-10T21:52:42.479Z,13.68
2023-05-10T21:55:31.398Z,13.85
2023-05-10T21:58:19.163Z,15.23
2023-05-10T22:01:07.995Z,14.88
2023-05-10T22:03:55.381Z,16.08
2023-05-10T22:06:45.369Z,14.95
2023-05-10T22:09:33.014Z,16.02
2023-05-10T22:12:22.938Z,14.73
2023-05-10T22:15:11.347Z,15.75
2023-05-10T22:17:58.815Z,14.65
2023-05-10T22:20:46.745Z,15.10
2023-05-10T22:23:34.228Z,13.73
2023-05-10T22:26:22.379Z,14.25
2023-05-10T22:29:11.821Z,13.73
2023-05-10T22:31:59.423Z,15.40
2023-05-10T22:34:47.447Z,14.82
2023-05-10T22:37:43.589Z,16.27
2023-05-10T22:40:33.977Z,14.75
2023-05-10T22:43:21.975Z,15.05
2023-05-10T22:46:13.929Z,14.05
2023-05-10T22:49:01.457Z,15.05
2023-05-10T22:51:48.965Z,15.70
2023-05-10T22:54:36.534Z,16.17
2023-05-10T22:57:24.503Z,14.70
2023-05-10T23:00:12.943Z,11.63
2023-05-10T23:03:01.896Z,10.13
2023-05-10T23:05:49.207Z,9.95
2023-05-10T23:08:36.595Z,8.57
2023-05-10T23:11:23.800Z,9.35
2023-05-10T23:14:11.199Z,9.35
2023-05-10T23:16:59.189Z,10.20
2023-05-10T23:19:48.051Z,9.88
2023-05-10T23:22:37.445Z,10.57
2023-05-10T23:25:24.639Z,11.60
2023-05-10T23:28:14.470Z,11.15
2023-05-10T23:31:02.084Z,11.60
2023-05-10T23:33:49.592Z,13.63
2023-05-10T23:36:38.530Z,13.73
2023-05-10T23:39:25.934Z,15.25
2023-05-10T23:42:14.598Z,15.85
2023-05-10T23:45:02.121Z,15.40
2023-05-10T23:47:49.404Z,15.15
2023-05-10T23:50:37.334Z,15.20
2023-05-10T23:53:26.042Z,14.82
2023-05-10T23:56:13.180Z,17.65
2023-05-10T23:59:00.581Z,18.17
